createdAt,value
2022-10-07T00:00:18.085Z,15.30
2022-10-07T00:01:18.126Z,15.30
2022-10-07T00:02:18.114Z,15.30
2022-10-07T00:03:18.043Z,15.30
2022-10-07T00:04:18.023Z,15.30
2022-10-07T00:05:18.022Z,15.29
2022-10-07T00:06:18.004Z,15.29
2022-10-07T00:07:18.006Z,15.29
2022-10-07T00:08:18.007Z,15.30
2022-10-07T00:09:17.982Z,15.30
2022-10-07T00:10:17.951Z,15.30
2022-10-07T00:11:17.951Z,15.31
2022-10-07T00:12:17.922Z,15.31
2022-10-07T00:13:17.917Z,15.32
2022-10-07T00:14:17.900Z,15.32
2022-10-07T00:15:17.883Z,15.33
2022-10-07T00:16:17.905Z,15.33
2022-10-07T00:17:17.858Z,15.33
2022-10-07T00:18:17.860Z,15.33
2022-10-07T00:19:17.846Z,15.33
2022-10-07T00:20:17.831Z,15.34
2022-10-07T00:21:17.834Z,15.33
2022-10-07T00:22:17.793Z,15.33
2022-10-07T00:23:17.777Z,15.33
2022-10-07T00:24:17.796Z,15.33
2022-10-07T00:25:17.748Z,15.32
2022-10-07T00:26:17.775Z,15.32
2022-10-07T00:27:17.741Z,15.32
2022-10-07T00:28:17.785Z,15.31
2022-10-07T00:29:17.695Z,15.31
2022-10-07T00:30:17.700Z,15.31
2022-10-07T00:31:17.713Z,15.31
2022-10-07T00:32:17.679Z,15.31
2022-10-07T00:33:17.654Z,15.32
2022-10-07T00:34:17.640Z,15.32
2022-10-07T00:35:17.626Z,15.32
2022-10-07T00:36:18.421Z,15.32
2022-10-07T00:37:17.619Z,15.32
2022-10-07T00:38:17.587Z,15.32
2022-10-07T00:39:17.580Z,15.31
2022-10-07T00:40:17.572Z,15.30
2022-10-07T00:41:17.559Z,15.30
2022-10-07T00:42:17.551Z,15.30
2022-10-07T00:43:17.535Z,15.29
2022-10-07T00:44:17.516Z,15.28
2022-10-07T00:45:17.501Z,15.27
2022-10-07T00:46:17.562Z,15.26
2022-10-07T00:47:17.485Z,15.26
2022-10-07T00:48:17.461Z,15.26
2022-10-07T00:49:17.460Z,15.25
2022-10-07T00:50:17.437Z,15.25
2022-10-07T00:51:17.439Z,15.25
2022-10-07T00:52:17.408Z,15.24
2022-10-07T00:53:17.405Z,15.24
2022-10-07T00:54:17.418Z,15.24
2022-10-07T00:55:17.369Z,15.24
2022-10-07T00:56:17.356Z,15.23
2022-10-07T00:57:17.370Z,15.23
2022-10-07T00:58:17.352Z,15.22
2022-10-07T00:59:17.329Z,15.22
2022-10-07T01:00:17.331Z,15.21
2022-10-07T01:01:17.360Z,15.20
2022-10-07T01:02:17.354Z,15.19
2022-10-07T01:03:17.283Z,15.19
2022-10-07T01:04:17.263Z,15.18
2022-10-07T01:05:17.248Z,15.17
2022-10-07T01:06:17.227Z,15.16
2022-10-07T01:07:17.216Z,15.15
2022-10-07T01:08:17.222Z,15.15
2022-10-07T01:09:17.182Z,15.14
2022-10-07T01:10:17.186Z,15.14
2022-10-07T01:11:17.175Z,15.13
2022-10-07T01:12:17.153Z,15.12
2022-10-07T01:13:17.140Z,15.11
2022-10-07T01:14:17.132Z,15.10
2022-10-07T01:15:17.114Z,15.10
2022-10-07T01:16:17.159Z,15.09
2022-10-07T01:17:17.079Z,15.08
2022-10-07T01:18:17.100Z,15.08
2022-10-07T01:19:17.064Z,15.07
2022-10-07T01:20:24.566Z,15.06
2022-10-07T01:21:17.025Z,15.05
2022-10-07T01:22:17.613Z,15.05
2022-10-07T01:23:17.038Z,15.04
2022-10-07T01:24:16.990Z,15.03
2022-10-07T01:25:17.020Z,15.03
2022-10-07T01:26:17.004Z,15.03
2022-10-07T01:27:16.964Z,15.03
2022-10-07T01:28:16.969Z,15.03
2022-10-07T01:29:16.921Z,15.03
2022-10-07T01:30:16.922Z,15.03
2022-10-07T01:31:16.965Z,15.03
2022-10-07T01:32:16.888Z,15.02
2022-10-07T01:33:16.918Z,15.01
2022-10-07T01:34:16.886Z,15.01
2022-10-07T01:35:16.846Z,15.01
2022-10-07T01:36:16.833Z,15.01
2022-10-07T01:37:16.831Z,15.00
2022-10-07T01:38:16.819Z,15.00
2022-10-07T01:39:16.796Z,15.00
2022-10-07T01:40:16.789Z,15.00
2022-10-07T01:41:16.764Z,15.00
2022-10-07T01:42:16.755Z,15.00
2022-10-07T01:43:16.739Z,15.00
2022-10-07T01:44:16.778Z,15.00
2022-10-07T01:45:16.711Z,14.99
2022-10-07T01:46:16.816Z,14.99
2022-10-07T01:47:16.688Z,14.99
2022-10-07T01:48:16.706Z,14.98
2022-10-07T01:49:16.671Z,14.97
2022-10-07T01:50:16.654Z,14.96
2022-10-07T01:51:16.640Z,14.95
2022-10-07T01:52:16.634Z,14.94
2022-10-07T01:53:16.611Z,14.92
2022-10-07T01:54:16.633Z,14.91
2022-10-07T01:55:16.585Z,14.90
2022-10-07T01:56:16.576Z,14.89
2022-10-07T01:57:16.557Z,14.88
2022-10-07T01:58:16.553Z,14.87
2022-10-07T01:59:16.557Z,14.85
2022-10-07T02:00:16.589Z,14.84
2022-10-07T02:01:16.601Z,14.83
2022-10-07T02:02:16.496Z,14.82
2022-10-07T02:03:16.533Z,14.81
2022-10-07T02:04:16.476Z,14.80
2022-10-07T02:05:16.462Z,14.79
2022-10-07T02:06:16.449Z,14.78
2022-10-07T02:07:16.437Z,14.76
2022-10-07T02:08:16.425Z,14.75
2022-10-07T02:09:16.407Z,14.74
2022-10-07T02:10:16.414Z,14.72
2022-10-07T02:11:16.376Z,14.71
2022-10-07T02:12:16.368Z,14.69
2022-10-07T02:13:16.366Z,14.67
2022-10-07T02:14:16.468Z,14.66
2022-10-07T02:15:16.326Z,14.64
2022-10-07T02:16:16.364Z,14.62
2022-10-07T02:17:16.299Z,14.61
2022-10-07T02:18:16.290Z,14.59
2022-10-07T02:19:16.299Z,14.57
2022-10-07T02:20:16.265Z,14.55
2022-10-07T02:21:16.244Z,14.53
2022-10-07T02:22:16.241Z,14.51
2022-10-07T02:23:16.244Z,14.49
2022-10-07T02:24:16.226Z,14.48
2022-10-07T02:25:16.201Z,14.46
2022-10-07T02:26:16.212Z,14.45
2022-10-07T02:27:16.198Z,14.44
2022-10-07T02:28:16.245Z,14.43
2022-10-07T02:29:16.157Z,14.43
2022-10-07T02:30:16.146Z,14.42
2022-10-07T02:31:16.176Z,14.42
2022-10-07T02:32:16.109Z,14.41
2022-10-07T02:33:16.107Z,14.40
2022-10-07T02:34:19.799Z,14.39
2022-10-07T02:35:16.067Z,14.37
2022-10-07T02:36:16.059Z,14.36
2022-10-07T02:37:16.051Z,14.34
2022-10-07T02:38:16.040Z,14.33
2022-10-07T02:39:16.018Z,14.31
2022-10-07T02:40:16.019Z,14.30
2022-10-07T02:41:15.986Z,14.28
2022-10-07T02:42:15.987Z,14.27
2022-10-07T02:43:15.960Z,14.26
2022-10-07T02:44:15.980Z,14.25
2022-10-07T02:45:15.945Z,14.24
2022-10-07T02:46:15.980Z,14.23
2022-10-07T02:47:15.910Z,14.22
2022-10-07T02:48:15.911Z,14.21
2022-10-07T02:49:15.882Z,14.21
2022-10-07T02:50:15.918Z,14.19
2022-10-07T02:51:20.049Z,14.18
2022-10-07T02:52:15.878Z,14.16
2022-10-07T02:53:15.837Z,14.15
2022-10-07T02:54:15.820Z,14.13
2022-10-07T02:55:15.811Z,14.12
2022-10-07T02:56:15.802Z,14.10
2022-10-07T02:57:15.813Z,14.08
2022-10-07T02:58:15.768Z,14.07
2022-10-07T02:59:15.764Z,14.07
2022-10-07T03:00:15.790Z,14.06
2022-10-07T03:01:15.768Z,14.05
2022-10-07T03:02:15.730Z,14.04
2022-10-07T03:03:15.768Z,14.03
2022-10-07T03:04:15.715Z,14.02
2022-10-07T03:05:15.719Z,14.02
2022-10-07T03:06:15.675Z,14.02
2022-10-07T03:07:15.665Z,14.01
2022-10-07T03:08:15.639Z,14.00
2022-10-07T03:09:15.655Z,13.99
2022-10-07T03:10:15.631Z,13.98
2022-10-07T03:11:15.597Z,13.97
2022-10-07T03:12:15.606Z,13.95
2022-10-07T03:13:15.623Z,13.94
2022-10-07T03:14:15.559Z,13.92
2022-10-07T03:15:15.570Z,13.91
2022-10-07T03:16:15.703Z,13.89
2022-10-07T03:17:15.536Z,13.87
2022-10-07T03:18:15.516Z,13.85
2022-10-07T03:19:15.509Z,13.83
2022-10-07T03:20:15.519Z,13.80
2022-10-07T03:21:15.493Z,13.78
2022-10-07T03:22:15.457Z,13.75
2022-10-07T03:23:15.436Z,13.73
2022-10-07T03:24:15.446Z,13.71
2022-10-07T03:25:15.448Z,13.69
2022-10-07T03:26:15.424Z,13.68
2022-10-07T03:27:15.400Z,13.66
2022-10-07T03:28:15.428Z,13.65
2022-10-07T03:29:15.364Z,13.63
2022-10-07T03:30:15.498Z,13.62
2022-10-07T03:31:15.392Z,13.61
2022-10-07T03:32:15.364Z,13.60
2022-10-07T03:33:15.308Z,13.59
2022-10-07T03:34:15.296Z,13.59
2022-10-07T03:35:15.285Z,13.58
2022-10-07T03:36:15.291Z,13.58
2022-10-07T03:37:15.284Z,13.58
2022-10-07T03:38:15.274Z,13.57
2022-10-07T03:39:15.246Z,13.57
2022-10-07T03:40:15.218Z,13.57
2022-10-07T03:41:15.246Z,13.57
2022-10-07T03:42:15.201Z,13.57
2022-10-07T03:43:15.205Z,13.57
2022-10-07T03:44:15.166Z,13.57
2022-10-07T03:45:15.157Z,13.56
2022-10-07T03:46:15.216Z,13.55
2022-10-07T03:47:15.160Z,13.54
2022-10-07T03:48:15.109Z,13.53
2022-10-07T03:49:15.100Z,13.52
2022-10-07T03:50:15.083Z,13.52
2022-10-07T03:51:15.082Z,13.52
2022-10-07T03:52:15.058Z,13.52
2022-10-07T03:53:15.062Z,13.52
2022-10-07T03:54:15.036Z,13.53
2022-10-07T03:55:15.072Z,13.53
2022-10-07T03:56:15.020Z,13.54
2022-10-07T03:57:15.009Z,13.54
2022-10-07T03:58:14.976Z,13.55
2022-10-07T03:59:14.981Z,13.55
2022-10-07T04:00:14.967Z,13.55
2022-10-07T04:01:14.953Z,13.55
2022-10-07T04:02:14.951Z,13.54
2022-10-07T04:03:14.997Z,13.54
2022-10-07T04:04:14.922Z,13.54
2022-10-07T04:05:14.897Z,13.53
2022-10-07T04:06:14.880Z,13.53
2022-10-07T04:07:14.867Z,13.53
2022-10-07T04:08:14.843Z,13.53
2022-10-07T04:09:14.837Z,13.52
2022-10-07T04:10:14.830Z,13.50
2022-10-07T04:11:14.805Z,13.48
2022-10-07T04:12:14.812Z,13.46
2022-10-07T04:13:14.802Z,13.44
2022-10-07T04:14:14.775Z,13.42
2022-10-07T04:15:14.752Z,13.39
2022-10-07T04:16:14.805Z,13.36
2022-10-07T04:17:14.757Z,13.30
2022-10-07T04:18:14.715Z,13.23
2022-10-07T04:19:14.697Z,13.14
2022-10-07T04:20:14.692Z,13.03
2022-10-07T04:21:14.691Z,12.91
2022-10-07T04:22:14.668Z,12.78
2022-10-07T04:23:14.658Z,12.69
2022-10-07T04:24:14.631Z,12.61
2022-10-07T04:25:14.617Z,12.54
2022-10-07T04:26:14.608Z,12.46
2022-10-07T04:27:33.954Z,12.37
2022-10-07T04:28:14.622Z,12.25
2022-10-07T04:29:14.555Z,12.14
2022-10-07T04:30:14.548Z,12.02
2022-10-07T04:31:14.572Z,11.91
2022-10-07T04:32:14.522Z,11.80
2022-10-07T04:33:14.863Z,11.71
2022-10-07T04:34:14.519Z,11.63
2022-10-07T04:35:14.474Z,11.57
2022-10-07T04:36:14.497Z,11.53
2022-10-07T04:37:14.469Z,11.52
2022-10-07T04:38:14.437Z,11.52
2022-10-07T04:39:14.451Z,11.53
2022-10-07T04:40:14.414Z,11.53
2022-10-07T04:41:14.399Z,11.51
2022-10-07T04:42:14.381Z,11.49
2022-10-07T04:43:14.363Z,11.48
2022-10-07T04:44:14.363Z,11.48
2022-10-07T04:45:14.348Z,11.49
2022-10-07T04:46:14.558Z,11.49
2022-10-07T04:47:14.377Z,11.48
2022-10-07T04:48:14.310Z,11.45
2022-10-07T04:49:14.294Z,11.42
2022-10-07T04:50:14.305Z,11.38
2022-10-07T04:51:14.275Z,11.34
2022-10-07T04:52:14.253Z,11.30
2022-10-07T04:53:14.276Z,11.26
2022-10-07T04:54:14.236Z,11.23
2022-10-07T04:55:14.217Z,11.20
2022-10-07T04:56:14.203Z,11.17
2022-10-07T04:57:14.203Z,11.17
2022-10-07T04:58:14.192Z,11.17
2022-10-07T04:59:14.167Z,11.17
2022-10-07T05:00:14.153Z,11.17
2022-10-07T05:01:14.271Z,11.18
2022-10-07T05:02:14.310Z,11.16
2022-10-07T05:03:14.108Z,11.13
2022-10-07T05:04:14.104Z,11.09
2022-10-07T05:05:14.101Z,11.05
2022-10-07T05:06:14.097Z,11.00
2022-10-07T05:07:14.062Z,10.96
2022-10-07T05:08:14.040Z,10.94
2022-10-07T05:09:14.047Z,10.94
2022-10-07T05:10:14.035Z,10.93
2022-10-07T05:11:14.026Z,10.93
2022-10-07T05:12:13.997Z,10.94
2022-10-07T05:13:13.992Z,10.96
2022-10-07T05:14:13.964Z,10.98
2022-10-07T05:15:13.974Z,10.99
2022-10-07T05:16:14.018Z,11.02
2022-10-07T05:17:13.937Z,11.06
2022-10-07T05:18:13.941Z,11.09
2022-10-07T05:19:13.907Z,11.13
2022-10-07T05:20:13.896Z,11.17
2022-10-07T05:21:13.887Z,11.21
2022-10-07T05:22:13.893Z,11.23
2022-10-07T05:23:13.851Z,11.24
2022-10-07T05:24:13.846Z,11.26
2022-10-07T05:25:13.854Z,11.29
2022-10-07T05:26:13.822Z,11.31
2022-10-07T05:27:13.818Z,11.33
2022-10-07T05:28:13.826Z,11.33
2022-10-07T05:29:13.774Z,11.32
2022-10-07T05:30:13.796Z,11.29
2022-10-07T05:31:13.917Z,11.28
2022-10-07T05:32:13.783Z,11.28
2022-10-07T05:33:13.729Z,11.30
2022-10-07T05:34:13.725Z,11.32
2022-10-07T05:35:13.726Z,11.35
2022-10-07T05:36:13.701Z,11.39
2022-10-07T05:37:13.681Z,11.42
2022-10-07T05:38:13.666Z,11.46
2022-10-07T05:39:13.654Z,11.50
2022-10-07T05:40:13.649Z,11.52
2022-10-07T05:41:13.632Z,11.52
2022-10-07T05:42:13.612Z,11.51
2022-10-07T05:43:13.608Z,11.48
2022-10-07T05:44:13.590Z,11.47
2022-10-07T05:45:13.574Z,11.47
2022-10-07T05:46:13.609Z,11.45
2022-10-07T05:47:13.549Z,11.42
2022-10-07T05:48:13.525Z,11.41
2022-10-07T05:49:13.518Z,11.39
2022-10-07T05:50:13.543Z,11.36
2022-10-07T05:51:13.504Z,11.31
2022-10-07T05:52:13.486Z,11.27
2022-10-07T05:53:13.464Z,11.23
2022-10-07T05:54:13.451Z,11.20
2022-10-07T05:55:13.457Z,11.18
2022-10-07T05:56:13.436Z,11.18
2022-10-07T05:57:13.410Z,11.18
2022-10-07T05:58:13.396Z,11.20
2022-10-07T05:59:13.402Z,11.24
2022-10-07T06:00:13.403Z,11.27
2022-10-07T06:01:14.257Z,11.28
2022-10-07T06:02:13.471Z,11.30
2022-10-07T06:03:13.376Z,11.33
2022-10-07T06:04:13.328Z,11.36
2022-10-07T06:05:13.312Z,11.40
2022-10-07T06:06:13.302Z,11.43
2022-10-07T06:07:15.892Z,11.46
2022-10-07T06:08:13.270Z,11.48
2022-10-07T06:09:13.254Z,11.50
2022-10-07T06:10:13.236Z,11.53
2022-10-07T06:11:13.245Z,11.56
2022-10-07T06:12:13.234Z,11.60
2022-10-07T06:13:13.234Z,11.63
2022-10-07T06:14:13.190Z,11.65
2022-10-07T06:15:13.180Z,11.67
2022-10-07T06:16:13.254Z,11.68
2022-10-07T06:17:13.158Z,11.69
2022-10-07T06:18:14.293Z,11.69
2022-10-07T06:19:13.124Z,11.67
2022-10-07T06:20:13.130Z,11.63
2022-10-07T06:21:13.145Z,11.60
2022-10-07T06:22:13.085Z,11.58
2022-10-07T06:23:13.126Z,11.58
2022-10-07T06:24:13.088Z,11.58
2022-10-07T06:25:13.040Z,11.60
2022-10-07T06:26:13.029Z,11.61
2022-10-07T06:27:13.027Z,11.63
2022-10-07T06:28:13.073Z,11.63
2022-10-07T06:29:13.005Z,11.62
2022-10-07T06:30:13.006Z,11.59
2022-10-07T06:31:12.991Z,11.57
2022-10-07T06:32:12.938Z,11.56
2022-10-07T06:33:12.939Z,11.56
2022-10-07T06:34:12.918Z,11.56
2022-10-07T06:35:12.894Z,11.57
2022-10-07T06:36:12.908Z,11.60
2022-10-07T06:37:12.877Z,11.62
2022-10-07T06:38:16.653Z,11.64
2022-10-07T06:39:12.873Z,11.65
2022-10-07T06:40:12.831Z,11.64
2022-10-07T06:41:12.825Z,11.62
2022-10-07T06:42:12.806Z,11.60
2022-10-07T06:43:12.815Z,11.58
2022-10-07T06:44:12.778Z,11.57
2022-10-07T06:45:12.801Z,11.57
2022-10-07T06:46:12.843Z,11.57
2022-10-07T06:47:12.738Z,11.59
2022-10-07T06:48:12.717Z,11.61
2022-10-07T06:49:12.719Z,11.62
2022-10-07T06:50:12.803Z,11.63
2022-10-07T06:51:12.677Z,11.64
2022-10-07T06:52:12.677Z,11.64
2022-10-07T06:53:12.656Z,11.65
2022-10-07T06:54:12.654Z,11.67
2022-10-07T06:55:12.640Z,11.68
2022-10-07T06:56:12.634Z,11.69
2022-10-07T06:57:43.606Z,11.68
2022-10-07T06:58:12.586Z,11.67
2022-10-07T06:59:12.592Z,11.63
2022-10-07T07:00:12.558Z,11.58
2022-10-07T07:01:12.628Z,11.53
2022-10-07T07:02:12.577Z,11.47
2022-10-07T07:03:12.514Z,11.43
2022-10-07T07:04:12.529Z,11.42
2022-10-07T07:05:12.487Z,11.41
2022-10-07T07:06:12.472Z,11.39
2022-10-07T07:07:12.463Z,11.38
2022-10-07T07:08:12.517Z,11.36
2022-10-07T07:09:12.459Z,11.33
2022-10-07T07:10:12.417Z,11.32
2022-10-07T07:11:12.419Z,11.32
2022-10-07T07:12:12.398Z,11.33
2022-10-07T07:13:12.375Z,11.34
2022-10-07T07:14:12.387Z,11.35
2022-10-07T07:15:12.356Z,11.36
2022-10-07T07:16:12.516Z,11.37
2022-10-07T07:17:12.442Z,11.36
2022-10-07T07:18:12.375Z,11.35
2022-10-07T07:19:12.334Z,11.34
2022-10-07T07:20:12.495Z,11.34
2022-10-07T07:21:12.260Z,11.36
2022-10-07T07:22:12.257Z,11.38
2022-10-07T07:23:12.249Z,11.39
2022-10-07T07:24:12.217Z,11.40
2022-10-07T07:25:12.271Z,11.41
2022-10-07T07:26:12.188Z,11.41
2022-10-07T07:27:12.175Z,11.43
2022-10-07T07:28:12.238Z,11.45
2022-10-07T07:29:12.147Z,11.49
2022-10-07T07:30:12.159Z,11.53
2022-10-07T07:31:12.142Z,11.57
2022-10-07T07:32:12.105Z,11.61
2022-10-07T07:33:12.094Z,11.65
2022-10-07T07:34:12.078Z,11.68
2022-10-07T07:35:12.074Z,11.71
2022-10-07T07:36:12.046Z,11.74
2022-10-07T07:37:12.035Z,11.76
2022-10-07T07:38:12.021Z,11.78
2022-10-07T07:39:12.007Z,11.81
2022-10-07T07:40:11.998Z,11.83
2022-10-07T07:41:11.984Z,11.87
2022-10-07T07:42:11.970Z,11.90
2022-10-07T07:43:11.957Z,11.93
2022-10-07T07:44:11.977Z,11.95
2022-10-07T07:45:11.945Z,11.96
2022-10-07T07:46:11.977Z,11.97
2022-10-07T07:47:11.911Z,11.98
2022-10-07T07:48:11.883Z,11.99
2022-10-07T07:49:11.883Z,11.99
2022-10-07T07:50:11.879Z,12.00
2022-10-07T07:51:11.889Z,12.01
2022-10-07T07:52:11.831Z,12.00
2022-10-07T07:53:11.821Z,12.00
2022-10-07T07:54:11.814Z,11.98
2022-10-07T07:55:11.806Z,11.97
2022-10-07T07:56:11.782Z,11.97
2022-10-07T07:57:11.786Z,11.99
2022-10-07T07:58:12.066Z,12.02
2022-10-07T07:59:11.774Z,12.06
2022-10-07T08:00:11.734Z,12.09
2022-10-07T08:01:11.756Z,12.13
2022-10-07T08:02:11.769Z,12.16
2022-10-07T08:03:11.703Z,12.19
2022-10-07T08:04:11.685Z,12.21
2022-10-07T08:05:11.662Z,12.24
2022-10-07T08:06:11.656Z,12.27
2022-10-07T08:07:11.632Z,12.29
2022-10-07T08:08:11.607Z,12.30
2022-10-07T08:09:11.602Z,12.31
2022-10-07T08:10:11.587Z,12.31
2022-10-07T08:11:11.579Z,12.30
2022-10-07T08:12:11.565Z,12.30
2022-10-07T08:13:11.558Z,12.29
2022-10-07T08:14:11.532Z,12.29
2022-10-07T08:15:11.534Z,12.28
2022-10-07T08:16:11.570Z,12.27
2022-10-07T08:17:11.485Z,12.27
2022-10-07T08:18:11.485Z,12.26
2022-10-07T08:19:11.474Z,12.26
2022-10-07T08:20:11.493Z,12.26
2022-10-07T08:21:11.457Z,12.27
2022-10-07T08:22:11.421Z,12.29
2022-10-07T08:23:11.423Z,12.32
2022-10-07T08:24:11.396Z,12.36
2022-10-07T08:25:11.376Z,12.40
2022-10-07T08:26:11.386Z,12.43
2022-10-07T08:27:11.390Z,12.46
2022-10-07T08:28:11.382Z,12.48
2022-10-07T08:29:11.348Z,12.50
2022-10-07T08:30:11.307Z,12.53
2022-10-07T08:31:11.387Z,12.55
2022-10-07T08:32:11.311Z,12.56
2022-10-07T08:33:11.280Z,12.56
2022-10-07T08:34:11.263Z,12.56
2022-10-07T08:35:11.277Z,12.55
2022-10-07T08:36:11.247Z,12.56
2022-10-07T08:37:11.236Z,12.56
2022-10-07T08:38:14.378Z,12.56
2022-10-07T08:39:11.187Z,12.56
2022-10-07T08:40:11.203Z,12.56
2022-10-07T08:41:11.161Z,12.57
2022-10-07T08:42:11.176Z,12.59
2022-10-07T08:43:11.175Z,12.61
2022-10-07T08:44:14.473Z,12.64
2022-10-07T08:45:11.161Z,12.66
2022-10-07T08:46:11.136Z,12.67
2022-10-07T08:47:11.104Z,12.68
2022-10-07T08:48:11.069Z,12.70
2022-10-07T08:49:11.058Z,12.72
2022-10-07T08:50:14.070Z,12.74
2022-10-07T08:51:11.039Z,12.76
2022-10-07T08:52:11.030Z,12.79
2022-10-07T08:53:11.018Z,12.82
2022-10-07T08:54:11.019Z,12.85
2022-10-07T08:55:10.989Z,12.89
2022-10-07T08:56:10.973Z,12.92
2022-10-07T08:57:10.959Z,12.94
2022-10-07T08:58:10.948Z,12.96
2022-10-07T08:59:10.930Z,12.97
2022-10-07T09:00:10.970Z,12.97
2022-10-07T09:01:10.912Z,12.98
2022-10-07T09:02:10.896Z,12.98
2022-10-07T09:03:10.894Z,12.98
2022-10-07T09:04:10.859Z,13.00
2022-10-07T09:05:10.885Z,13.01
2022-10-07T09:06:10.879Z,13.03
2022-10-07T09:07:10.817Z,13.05
2022-10-07T09:08:10.849Z,13.08
2022-10-07T09:09:10.821Z,13.10
2022-10-07T09:10:10.776Z,13.12
2022-10-07T09:11:10.921Z,13.14
2022-10-07T09:12:10.838Z,13.16
2022-10-07T09:13:10.751Z,13.17
2022-10-07T09:14:10.727Z,13.19
2022-10-07T09:15:10.738Z,13.21
2022-10-07T09:16:10.751Z,13.23
2022-10-07T09:17:10.699Z,13.25
2022-10-07T09:18:10.696Z,13.28
2022-10-07T09:19:10.659Z,13.30
2022-10-07T09:20:11.515Z,13.32
2022-10-07T09:21:10.652Z,13.35
2022-10-07T09:22:10.629Z,13.37
2022-10-07T09:23:10.601Z,13.40
2022-10-07T09:24:10.605Z,13.43
2022-10-07T09:25:11.454Z,13.45
2022-10-07T09:26:10.578Z,13.48
2022-10-07T09:27:10.555Z,13.50
2022-10-07T09:28:10.602Z,13.52
2022-10-07T09:29:10.540Z,13.54
2022-10-07T09:30:10.510Z,13.55
2022-10-07T09:31:10.547Z,13.56
2022-10-07T09:32:10.494Z,13.56
2022-10-07T09:33:10.475Z,13.56
2022-10-07T09:34:10.479Z,13.56
2022-10-07T09:35:10.460Z,13.57
2022-10-07T09:36:10.439Z,13.57
2022-10-07T09:37:10.413Z,13.57
2022-10-07T09:38:10.414Z,13.58
2022-10-07T09:39:10.400Z,13.58
2022-10-07T09:40:10.395Z,13.55
2022-10-07T09:41:10.363Z,13.49
2022-10-07T09:42:10.347Z,13.44
2022-10-07T09:43:10.347Z,13.41
2022-10-07T09:44:10.332Z,13.39
2022-10-07T09:45:10.321Z,13.38
2022-10-07T09:46:10.334Z,13.38
2022-10-07T09:47:10.281Z,13.39
2022-10-07T09:48:10.275Z,13.41
2022-10-07T09:49:10.277Z,13.43
2022-10-07T09:50:10.242Z,13.45
2022-10-07T09:51:10.250Z,13.48
2022-10-07T09:52:10.226Z,13.51
2022-10-07T09:53:10.214Z,13.53
2022-10-07T09:54:10.214Z,13.56
2022-10-07T09:55:10.182Z,13.57
2022-10-07T09:56:10.168Z,13.58
2022-10-07T09:57:10.160Z,13.59
2022-10-07T09:58:10.140Z,13.61
2022-10-07T09:59:10.142Z,13.62
2022-10-07T10:00:10.131Z,13.64
2022-10-07T10:01:10.111Z,13.66
2022-10-07T10:02:10.232Z,13.67
2022-10-07T10:03:10.156Z,13.67
2022-10-07T10:04:10.062Z,13.68
2022-10-07T10:05:10.093Z,13.68
2022-10-07T10:06:10.036Z,13.69
2022-10-07T10:07:10.037Z,13.69
2022-10-07T10:08:10.008Z,13.70
2022-10-07T10:09:09.989Z,13.71
2022-10-07T10:10:10.003Z,13.72
2022-10-07T10:11:09.974Z,13.74
2022-10-07T10:12:09.958Z,13.77
2022-10-07T10:13:09.941Z,13.79
2022-10-07T10:14:09.936Z,13.81
2022-10-07T10:15:09.978Z,13.84
2022-10-07T10:16:09.936Z,13.87
2022-10-07T10:17:09.886Z,13.90
2022-10-07T10:18:09.877Z,13.93
2022-10-07T10:19:09.863Z,13.96
2022-10-07T10:20:09.859Z,13.98
2022-10-07T10:21:09.839Z,14.01
2022-10-07T10:22:09.829Z,14.03
2022-10-07T10:23:09.818Z,14.06
2022-10-07T10:24:09.801Z,14.08
2022-10-07T10:25:09.805Z,14.11
2022-10-07T10:26:09.798Z,14.13
2022-10-07T10:27:09.773Z,14.16
2022-10-07T10:28:09.799Z,14.18
2022-10-07T10:29:09.729Z,14.21
2022-10-07T10:30:09.737Z,14.23
2022-10-07T10:31:09.756Z,14.25
2022-10-07T10:32:09.697Z,14.27
2022-10-07T10:33:09.692Z,14.28
2022-10-07T10:34:09.670Z,14.29
2022-10-07T10:35:09.660Z,14.31
2022-10-07T10:36:09.674Z,14.32
2022-10-07T10:37:13.773Z,14.34
2022-10-07T10:38:09.640Z,14.34
2022-10-07T10:39:09.759Z,14.33
2022-10-07T10:40:09.600Z,14.32
2022-10-07T10:41:09.590Z,14.30
2022-10-07T10:42:09.571Z,14.27
2022-10-07T10:43:09.544Z,14.22
2022-10-07T10:44:09.605Z,14.17
2022-10-07T10:45:09.519Z,14.13
2022-10-07T10:46:09.565Z,14.11
2022-10-07T10:47:09.493Z,14.09
2022-10-07T10:48:09.518Z,14.08
2022-10-07T10:49:09.481Z,14.08
2022-10-07T10:50:09.469Z,14.09
2022-10-07T10:51:09.449Z,14.10
2022-10-07T10:52:13.287Z,14.11
2022-10-07T10:53:09.423Z,14.12
2022-10-07T10:54:09.418Z,14.14
2022-10-07T10:55:09.388Z,14.15
2022-10-07T10:56:09.397Z,14.17
2022-10-07T10:57:09.365Z,14.20
2022-10-07T10:58:09.370Z,14.22
2022-10-07T10:59:09.378Z,14.25
2022-10-07T11:00:09.327Z,14.28
2022-10-07T11:01:09.390Z,14.31
2022-10-07T11:02:09.397Z,14.34
2022-10-07T11:03:09.311Z,14.37
2022-10-07T11:04:09.305Z,14.40
2022-10-07T11:05:09.315Z,14.43
2022-10-07T11:06:09.248Z,14.47
2022-10-07T11:07:09.286Z,14.50
2022-10-07T11:08:09.300Z,14.53
2022-10-07T11:09:09.207Z,14.56
2022-10-07T11:10:09.200Z,14.59
2022-10-07T11:11:09.199Z,14.62
2022-10-07T11:12:09.188Z,14.64
2022-10-07T11:13:09.184Z,14.67
2022-10-07T11:14:09.144Z,14.69
2022-10-07T11:15:09.145Z,14.71
2022-10-07T11:16:09.159Z,14.72
2022-10-07T11:17:09.116Z,14.72
2022-10-07T11:18:09.092Z,14.72
2022-10-07T11:19:09.097Z,14.72
2022-10-07T11:20:09.407Z,14.73
2022-10-07T11:21:09.422Z,14.73
2022-10-07T11:22:09.069Z,14.75
2022-10-07T11:23:09.031Z,14.77
2022-10-07T11:24:09.023Z,14.79
2022-10-07T11:25:09.003Z,14.82
2022-10-07T11:26:09.044Z,14.85
2022-10-07T11:27:09.095Z,14.88
2022-10-07T11:28:09.013Z,14.91
2022-10-07T11:29:08.954Z,14.94
2022-10-07T11:30:08.956Z,14.97
2022-10-07T11:31:08.966Z,15.01
2022-10-07T11:32:08.949Z,15.04
2022-10-07T11:33:09.021Z,15.07
2022-10-07T11:34:08.882Z,15.10
2022-10-07T11:35:08.890Z,15.14
2022-10-07T11:36:08.878Z,15.17
2022-10-07T11:37:08.852Z,15.21
2022-10-07T11:38:08.847Z,15.24
2022-10-07T11:39:08.822Z,15.28
2022-10-07T11:40:08.808Z,15.33
2022-10-07T11:41:08.796Z,15.39
2022-10-07T11:42:08.856Z,15.45
2022-10-07T11:43:08.789Z,15.52
2022-10-07T11:44:08.759Z,15.59
2022-10-07T11:45:08.734Z,15.66
2022-10-07T11:46:11.468Z,15.72
2022-10-07T11:47:08.715Z,15.78
2022-10-07T11:48:08.729Z,15.84
2022-10-07T11:49:08.685Z,15.89
2022-10-07T11:50:08.696Z,15.94
2022-10-07T11:51:08.673Z,15.99
2022-10-07T11:52:08.650Z,16.04
2022-10-07T11:53:08.655Z,16.09
2022-10-07T11:54:08.622Z,16.15
2022-10-07T11:55:08.668Z,16.20
2022-10-07T11:56:08.616Z,16.25
2022-10-07T11:57:09.532Z,16.31
2022-10-07T11:58:09.412Z,16.37
2022-10-07T11:59:08.574Z,16.42
2022-10-07T12:00:09.417Z,16.47
2022-10-07T12:01:08.579Z,16.52
2022-10-07T12:02:08.605Z,16.56
2022-10-07T12:03:08.554Z,16.61
2022-10-07T12:04:08.665Z,16.66
2022-10-07T12:05:08.514Z,16.71
2022-10-07T12:06:08.472Z,16.76
2022-10-07T12:07:08.457Z,16.80
2022-10-07T12:08:08.470Z,16.85
2022-10-07T12:09:08.452Z,16.89
2022-10-07T12:10:08.425Z,16.93
2022-10-07T12:11:08.419Z,16.97
2022-10-07T12:12:08.418Z,17.02
2022-10-07T12:13:08.386Z,17.07
2022-10-07T12:14:08.395Z,17.12
2022-10-07T12:15:08.373Z,17.18
2022-10-07T12:16:08.365Z,17.23
2022-10-07T12:17:08.372Z,17.29
2022-10-07T12:18:08.362Z,17.34
2022-10-07T12:19:08.304Z,17.39
2022-10-07T12:20:08.289Z,17.44
2022-10-07T12:21:08.314Z,17.48
2022-10-07T12:22:08.270Z,17.53
2022-10-07T12:23:08.265Z,17.56
2022-10-07T12:24:08.332Z,17.59
2022-10-07T12:25:11.120Z,17.62
2022-10-07T12:26:08.220Z,17.65
2022-10-07T12:27:08.198Z,17.67
2022-10-07T12:28:08.391Z,17.70
2022-10-07T12:29:08.203Z,17.74
2022-10-07T12:30:08.160Z,17.77
2022-10-07T12:31:08.200Z,17.80
2022-10-07T12:32:08.135Z,17.82
2022-10-07T12:33:08.155Z,17.84
2022-10-07T12:34:08.104Z,17.86
2022-10-07T12:35:08.106Z,17.88
2022-10-07T12:36:08.083Z,17.90
2022-10-07T12:37:08.063Z,17.92
2022-10-07T12:38:08.058Z,17.94
2022-10-07T12:39:08.055Z,17.95
2022-10-07T12:40:08.022Z,17.96
2022-10-07T12:41:08.092Z,17.97
2022-10-07T12:42:07.997Z,17.99
2022-10-07T12:43:08.003Z,18.00
2022-10-07T12:44:07.979Z,18.02
2022-10-07T12:45:07.977Z,18.03
2022-10-07T12:46:08.002Z,18.05
2022-10-07T12:47:07.933Z,18.06
2022-10-07T12:48:08.037Z,18.09
2022-10-07T12:49:07.920Z,18.11
2022-10-07T12:50:08.090Z,18.14
2022-10-07T12:51:07.891Z,18.18
2022-10-07T12:52:08.011Z,18.22